Decoded Metar for PAVA (Chevak in AK, USA) (IATA:N/A) | Meteo·Mobile Aviation Weather
aviador You're here:

PAVA Decoded Metar

Chevak in AK, USA
Report Time2018-12-11 01:56:00
UTC Time2018-12-11 02:17:31
Flight Rules vfr VFR
Wind330° at 08 kt
W.Decomp.*RWY 02: 3.6 kt HW 7.1 kt LCW
W.Rank330° ranks 23
Current wind is below 330° avg. (10.0)
Visibility9999 m
Phenomena:N/A
Clouds:Few 035 Hf
Expected CloudBase > 400 ft AGL from Temp-Dew spread
CeilingNone
Temp-12°C (ISA -27)
Dew Point-13°C (92% RH)
AAT-18.1°C
QNH978 hPa
Density Alt-2,044 ft
Elevation75 ft
Report Wrong Elevation
Raw Report
PAVA 110156Z AUTO 33008KT 10SM FEW035 M12/M13 A2888 RMK AO2
SNB13E25 SLP867 P0000 T11171133 FZRANO=

Extra information for PAVA:More info

Airport Information Weather charts Add Link Nearby Venues Social comments

AIRNAV info for PAVA